createdAt,value
2018-04-06T00:01:04.594Z,2.90
2018-04-06T00:03:39.525Z,2.20
2018-04-06T00:06:14.328Z,2.50
2018-04-06T00:08:49.756Z,2.10
2018-04-06T00:11:24.929Z,2.30
2018-04-06T00:14:00.349Z,1.97
2018-04-06T00:16:36.175Z,2.00
2018-04-06T00:19:07.406Z,2.37
2018-04-06T00:21:42.076Z,2.93
2018-04-06T00:24:17.838Z,2.10
2018-04-06T00:26:53.103Z,2.27
2018-04-06T00:29:28.542Z,2.60
2018-04-06T00:32:03.448Z,2.50
2018-04-06T00:34:39.318Z,2.50
2018-04-06T00:37:15.276Z,2.30
2018-04-06T00:39:50.941Z,2.87
2018-04-06T00:42:26.487Z,2.60
2018-04-06T00:45:01.740Z,2.50
2018-04-06T00:47:36.689Z,2.80
2018-04-06T00:50:12.083Z,2.80
2018-04-06T00:52:47.241Z,2.57
2018-04-06T00:55:22.752Z,2.83
2018-04-06T00:57:59.197Z,3.37
2018-04-06T01:00:30.205Z,2.90
2018-04-06T01:03:05.143Z,3.10
2018-04-06T01:05:36.425Z,2.87
2018-04-06T01:08:11.145Z,3.20
2018-04-06T01:10:47.239Z,2.87
2018-04-06T01:13:22.034Z,2.97
2018-04-06T01:15:57.649Z,2.87
2018-04-06T01:18:32.833Z,2.90
2018-04-06T01:21:08.943Z,2.63
2018-04-06T01:23:39.951Z,3.20
2018-04-06T01:26:14.939Z,3.17
2018-04-06T01:28:46.001Z,3.07
2018-04-06T01:31:22.351Z,2.67
2018-04-06T01:33:57.259Z,3.00
2018-04-06T01:36:32.164Z,2.67
2018-04-06T01:39:07.114Z,2.53
2018-04-06T01:41:38.152Z,2.50
2018-04-06T01:44:13.172Z,2.73
2018-04-06T01:46:48.003Z,2.37
2018-04-06T01:49:22.927Z,2.83
2018-04-06T01:51:59.095Z,2.43
2018-04-06T01:54:34.191Z,2.57
2018-04-06T01:57:12.387Z,3.07
2018-04-06T01:59:47.598Z,2.80
2018-04-06T02:02:22.759Z,2.40
2018-04-06T02:04:57.789Z,2.60
2018-04-06T02:07:33.125Z,2.80
2018-04-06T02:10:03.563Z,3.03
2018-04-06T02:12:39.672Z,2.77
2018-04-06T02:15:15.363Z,3.20
2018-04-06T02:17:50.711Z,2.97
2018-04-06T02:20:26.449Z,3.43
2018-04-06T02:23:01.698Z,2.73
2018-04-06T02:25:38.281Z,2.60
2018-04-06T02:28:14.643Z,2.40
2018-04-06T02:30:50.659Z,2.43
2018-04-06T02:33:26.719Z,2.73
2018-04-06T02:36:01.512Z,2.73
2018-04-06T02:38:37.165Z,3.57
2018-04-06T02:41:12.089Z,2.90
2018-04-06T02:43:47.689Z,2.43
2018-04-06T02:46:22.668Z,2.60
2018-04-06T02:48:57.704Z,2.57
2018-04-06T02:51:33.484Z,2.60
2018-04-06T02:54:08.881Z,2.37
2018-04-06T02:56:43.895Z,3.33
2018-04-06T02:59:19.322Z,2.97
2018-04-06T03:01:54.498Z,2.70
2018-04-06T03:04:30.530Z,2.77
2018-04-06T03:07:06.558Z,3.30
2018-04-06T03:09:42.208Z,2.70
2018-04-06T03:12:17.347Z,2.80
2018-04-06T03:14:52.636Z,2.97
2018-04-06T03:17:28.005Z,2.90
2018-04-06T03:20:03.359Z,2.50
2018-04-06T03:22:38.446Z,2.30
2018-04-06T03:25:13.745Z,3.60
2018-04-06T03:27:44.748Z,3.00
2018-04-06T03:30:21.206Z,2.60
2018-04-06T03:32:56.995Z,2.80
2018-04-06T03:35:32.578Z,3.50
2018-04-06T03:38:07.595Z,2.90
2018-04-06T03:40:42.950Z,3.03
2018-04-06T03:43:18.001Z,3.60
2018-04-06T03:45:53.349Z,3.40
2018-04-06T03:48:25.141Z,3.20
2018-04-06T03:51:00.863Z,2.70
2018-04-06T03:53:36.551Z,3.87
2018-04-06T03:56:13.817Z,3.57
2018-04-06T03:58:44.977Z,4.47
2018-04-06T04:01:16.148Z,4.23
2018-04-06T04:03:51.240Z,3.53
2018-04-06T04:06:27.593Z,3.23
2018-04-06T04:09:03.528Z,3.80
2018-04-06T04:11:38.651Z,3.20
2018-04-06T04:14:13.766Z,3.50
2018-04-06T04:16:49.427Z,3.50
2018-04-06T04:19:24.517Z,3.73
2018-04-06T04:21:59.829Z,3.77
2018-04-06T04:24:30.960Z,3.33
2018-04-06T04:27:06.045Z,3.60
2018-04-06T04:29:41.096Z,3.80
2018-04-06T04:32:18.859Z,3.13
2018-04-06T04:34:54.121Z,4.83
2018-04-06T04:37:29.993Z,4.10
2018-04-06T04:40:05.823Z,3.87
2018-04-06T04:42:41.211Z,4.37
2018-04-06T04:45:12.552Z,4.17
2018-04-06T04:47:43.783Z,4.60
2018-04-06T04:50:14.795Z,4.33
2018-04-06T04:52:45.886Z,4.10
2018-04-06T04:55:16.937Z,3.80
2018-04-06T04:57:47.836Z,4.20
2018-04-06T05:00:18.864Z,3.60
2018-04-06T05:02:49.762Z,4.33
2018-04-06T05:05:25.327Z,4.13
2018-04-06T05:08:00.577Z,3.80
2018-04-06T05:10:31.776Z,4.70
2018-04-06T05:13:07.453Z,4.67
2018-04-06T05:15:43.344Z,4.53
2018-04-06T05:18:14.523Z,4.90
2018-04-06T05:20:45.649Z,3.97
2018-04-06T05:23:21.568Z,5.13
2018-04-06T05:25:56.925Z,5.93
2018-04-06T05:28:32.712Z,7.27
2018-04-06T05:31:06.029Z,6.03
2018-04-06T05:33:42.759Z,5.50
2018-04-06T05:36:17.783Z,4.87
2018-04-06T05:38:53.494Z,4.57
2018-04-06T05:41:28.823Z,4.67
2018-04-06T05:44:05.102Z,4.37
2018-04-06T05:46:40.471Z,3.73
2018-04-06T05:49:11.696Z,3.50
2018-04-06T05:51:42.135Z,4.17
2018-04-06T05:54:14.487Z,4.47
2018-04-06T05:56:44.907Z,3.63
2018-04-06T05:59:15.969Z,3.93
2018-04-06T06:01:51.035Z,3.53
2018-04-06T06:04:22.832Z,3.77
2018-04-06T06:06:54.091Z,4.13
2018-04-06T06:09:25.292Z,4.83
2018-04-06T06:11:56.633Z,3.47
2018-04-06T06:14:31.071Z,3.47
2018-04-06T06:17:01.490Z,3.33
2018-04-06T06:19:32.136Z,3.90
2018-04-06T06:22:09.213Z,2.50
2018-04-06T06:24:40.281Z,3.00
2018-04-06T06:27:11.764Z,3.27
2018-04-06T06:29:42.759Z,3.00
2018-04-06T06:32:13.389Z,3.03
2018-04-06T06:34:44.740Z,3.50
2018-04-06T06:37:16.051Z,2.93
2018-04-06T06:39:46.992Z,2.90
2018-04-06T06:42:18.138Z,3.17
2018-04-06T06:44:54.882Z,3.00
2018-04-06T06:47:30.219Z,2.60
2018-04-06T06:50:01.508Z,2.87
2018-04-06T06:52:37.799Z,3.50
2018-04-06T06:55:14.302Z,3.00
2018-04-06T06:57:49.851Z,3.73
2018-04-06T07:00:21.150Z,2.57
2018-04-06T07:02:55.097Z,3.10
2018-04-06T07:05:25.527Z,3.23
2018-04-06T07:07:56.611Z,3.30
2018-04-06T07:10:27.760Z,2.60
2018-04-06T07:12:58.168Z,3.30
2018-04-06T07:15:33.403Z,3.07
2018-04-06T07:18:03.788Z,2.53
2018-04-06T07:20:34.281Z,2.50
2018-04-06T07:23:05.435Z,2.80
2018-04-06T07:25:37.408Z,2.80
2018-04-06T07:28:13.181Z,3.47
2018-04-06T07:30:44.261Z,3.33
2018-04-06T07:33:19.719Z,2.70
2018-04-06T07:35:50.161Z,3.10
2018-04-06T07:38:24.390Z,2.60
2018-04-06T07:40:55.724Z,2.43
2018-04-06T07:43:27.601Z,3.37
2018-04-06T07:45:58.821Z,2.50
2018-04-06T07:48:29.871Z,2.93
2018-04-06T07:51:01.090Z,2.27
2018-04-06T07:53:31.505Z,2.63
2018-04-06T07:56:02.893Z,2.50
2018-04-06T07:58:34.713Z,2.43
2018-04-06T08:01:06.628Z,2.17
2018-04-06T08:03:41.541Z,3.67
2018-04-06T08:06:14.360Z,2.40
2018-04-06T08:08:50.981Z,2.50
2018-04-06T08:11:22.954Z,2.27
2018-04-06T08:13:57.932Z,2.00
2018-04-06T08:16:28.960Z,2.10
2018-04-06T08:19:00.111Z,2.60
2018-04-06T08:21:36.064Z,2.63
2018-04-06T08:24:07.336Z,2.20
2018-04-06T08:26:38.511Z,3.27
2018-04-06T08:29:09.681Z,1.70
2018-04-06T08:31:45.594Z,2.87
2018-04-06T08:34:20.469Z,2.00
2018-04-06T08:36:56.307Z,2.50
2018-04-06T08:39:31.674Z,1.80
2018-04-06T08:42:05.962Z,1.93
2018-04-06T08:44:37.152Z,2.07
2018-04-06T08:47:12.747Z,1.80
2018-04-06T08:49:43.180Z,2.20
2018-04-06T08:52:18.404Z,2.30
2018-04-06T08:54:49.630Z,2.40
2018-04-06T08:57:20.350Z,2.03
2018-04-06T08:59:51.067Z,2.20
2018-04-06T09:02:26.745Z,1.93
2018-04-06T09:05:01.663Z,2.00
2018-04-06T09:07:38.186Z,3.80
2018-04-06T09:10:14.236Z,2.77
2018-04-06T09:12:45.503Z,2.37
2018-04-06T09:15:17.620Z,2.40
2018-04-06T09:17:53.753Z,3.50
2018-04-06T09:20:24.820Z,3.00
2018-04-06T09:22:55.075Z,3.80
2018-04-06T09:25:30.565Z,4.97
2018-04-06T09:28:05.725Z,3.97
2018-04-06T09:30:36.753Z,4.37
2018-04-06T09:33:12.051Z,3.83
2018-04-06T09:35:48.512Z,6.30
2018-04-06T09:38:22.907Z,5.93
2018-04-06T09:40:59.296Z,5.33
2018-04-06T09:43:35.496Z,3.60
2018-04-06T09:46:11.566Z,4.07
2018-04-06T09:48:41.793Z,3.37
2018-04-06T09:51:13.043Z,3.73
2018-04-06T09:53:48.493Z,2.63
2018-04-06T09:56:23.103Z,6.60
2018-04-06T09:58:54.289Z,4.17
2018-04-06T10:01:30.699Z,3.70
2018-04-06T10:04:07.518Z,3.20
2018-04-06T10:06:38.631Z,3.10
2018-04-06T10:09:14.283Z,2.77
2018-04-06T10:11:45.223Z,2.90
2018-04-06T10:14:20.743Z,2.80
2018-04-06T10:16:55.831Z,3.43
2018-04-06T10:19:27.031Z,2.73
2018-04-06T10:22:00.079Z,4.77
2018-04-06T10:24:30.721Z,1.93
2018-04-06T10:27:06.156Z,2.60
2018-04-06T10:29:37.382Z,2.00
2018-04-06T10:32:08.401Z,2.33
2018-04-06T10:34:38.868Z,1.83
2018-04-06T10:37:09.271Z,2.60
2018-04-06T10:39:40.526Z,2.20
2018-04-06T10:42:11.568Z,1.73
2018-04-06T10:44:42.041Z,1.87
2018-04-06T10:47:13.133Z,2.97
2018-04-06T10:49:44.389Z,1.97
2018-04-06T10:52:14.787Z,2.13
2018-04-06T10:54:49.911Z,1.90
2018-04-06T10:57:20.317Z,2.00
2018-04-06T10:59:52.885Z,2.07
2018-04-06T11:02:24.163Z,2.17
2018-04-06T11:04:54.671Z,4.67
2018-04-06T11:07:25.434Z,2.20
2018-04-06T11:09:56.634Z,2.87
2018-04-06T11:12:27.051Z,2.53
2018-04-06T11:14:59.376Z,2.50
2018-04-06T11:17:30.419Z,2.17
2018-04-06T11:20:00.868Z,1.83
2018-04-06T11:22:35.192Z,2.10
2018-04-06T11:25:05.867Z,2.63
2018-04-06T11:27:36.945Z,1.60
2018-04-06T11:30:07.444Z,1.90
2018-04-06T11:32:43.238Z,1.97
2018-04-06T11:35:18.448Z,2.00
2018-04-06T11:37:48.841Z,2.40
2018-04-06T11:40:21.122Z,2.20
2018-04-06T11:42:51.537Z,2.30
2018-04-06T11:45:22.017Z,2.50
2018-04-06T11:47:52.091Z,2.10
2018-04-06T11:50:23.226Z,2.03
2018-04-06T11:52:54.375Z,2.67
2018-04-06T11:55:24.819Z,2.67
2018-04-06T11:57:56.808Z,2.67
2018-04-06T12:00:32.095Z,2.60
2018-04-06T12:03:03.304Z,3.43
2018-04-06T12:05:34.376Z,2.37
2018-04-06T12:08:05.574Z,2.23
2018-04-06T12:10:39.820Z,2.03
2018-04-06T12:13:16.306Z,1.83
2018-04-06T12:15:47.211Z,1.97
2018-04-06T12:18:22.712Z,2.10
2018-04-06T12:20:58.689Z,2.07
2018-04-06T12:23:33.636Z,2.10
2018-04-06T12:26:09.248Z,2.47
2018-04-06T12:28:39.709Z,1.80
2018-04-06T12:31:15.608Z,1.90
2018-04-06T12:33:46.754Z,1.97
2018-04-06T12:36:23.107Z,2.47
2018-04-06T12:38:54.046Z,1.90
2018-04-06T12:41:24.496Z,1.83
2018-04-06T12:43:55.664Z,1.60
2018-04-06T12:46:27.340Z,1.90
2018-04-06T12:48:58.756Z,1.70
2018-04-06T12:51:29.191Z,1.60
2018-04-06T12:54:00.096Z,2.33
2018-04-06T12:56:31.208Z,1.60
2018-04-06T12:59:02.739Z,1.87
2018-04-06T13:01:36.480Z,1.80
2018-04-06T13:04:07.787Z,1.60
2018-04-06T13:06:38.589Z,2.67
2018-04-06T13:09:10.071Z,2.03
2018-04-06T13:11:49.679Z,1.70
2018-04-06T13:14:24.942Z,1.80
2018-04-06T13:17:00.688Z,1.90
2018-04-06T13:19:36.935Z,1.70
2018-04-06T13:22:08.016Z,1.70
2018-04-06T13:24:43.668Z,1.80
2018-04-06T13:27:15.623Z,1.90
2018-04-06T13:29:52.749Z,1.83
2018-04-06T13:32:23.927Z,1.90
2018-04-06T13:34:58.882Z,2.03
2018-04-06T13:37:34.495Z,1.80
2018-04-06T13:40:11.614Z,1.90
2018-04-06T13:42:48.151Z,1.70
2018-04-06T13:45:19.159Z,2.00
2018-04-06T13:47:50.054Z,1.97
2018-04-06T13:50:22.025Z,2.07
2018-04-06T13:52:57.855Z,2.23
2018-04-06T13:55:33.093Z,1.90
2018-04-06T13:58:04.376Z,1.97
2018-04-06T14:00:35.549Z,1.60
2018-04-06T14:03:11.415Z,1.57
2018-04-06T14:05:42.813Z,2.00
2018-04-06T14:08:19.236Z,1.53
2018-04-06T14:10:50.322Z,2.40
2018-04-06T14:13:20.809Z,2.20
2018-04-06T14:15:51.989Z,4.20
2018-04-06T14:18:23.233Z,2.07
2018-04-06T14:20:53.828Z,3.87
2018-04-06T14:23:25.129Z,4.30
2018-04-06T14:25:56.995Z,2.30
2018-04-06T14:28:28.044Z,2.20
2018-04-06T14:31:03.367Z,1.90
2018-04-06T14:33:38.846Z,2.07
2018-04-06T14:36:09.916Z,2.47
2018-04-06T14:38:44.835Z,2.37
2018-04-06T14:41:19.949Z,2.10
2018-04-06T14:43:53.621Z,2.17
2018-04-06T14:46:30.065Z,2.03
2018-04-06T14:49:01.132Z,2.43
2018-04-06T14:51:32.970Z,2.10
2018-04-06T14:54:07.005Z,2.40
2018-04-06T14:56:43.221Z,2.30
2018-04-06T14:59:18.384Z,2.27
2018-04-06T15:01:53.643Z,2.20
2018-04-06T15:04:30.617Z,2.60
2018-04-06T15:07:06.616Z,2.77
2018-04-06T15:09:43.444Z,2.93
2018-04-06T15:12:15.324Z,2.40
2018-04-06T15:14:45.792Z,2.70
2018-04-06T15:17:21.183Z,2.40
2018-04-06T15:19:53.047Z,2.40
2018-04-06T15:22:24.781Z,2.17
2018-04-06T15:25:00.627Z,2.57
2018-04-06T15:27:31.862Z,2.20
2018-04-06T15:30:02.805Z,2.60
2018-04-06T15:32:37.113Z,2.63
2018-04-06T15:35:12.829Z,2.57
2018-04-06T15:37:43.366Z,2.40
2018-04-06T15:40:19.150Z,3.53
2018-04-06T15:42:50.475Z,2.40
2018-04-06T15:45:26.515Z,2.63
2018-04-06T15:47:58.421Z,2.90
2018-04-06T15:50:30.193Z,2.50
2018-04-06T15:53:06.613Z,3.27
2018-04-06T15:55:37.439Z,3.17
2018-04-06T15:58:07.855Z,2.50
2018-04-06T16:00:38.512Z,2.30
2018-04-06T16:03:15.227Z,2.47
2018-04-06T16:05:47.192Z,2.37
2018-04-06T16:08:19.238Z,2.20
2018-04-06T16:10:50.457Z,2.93
2018-04-06T16:13:21.639Z,2.60
2018-04-06T16:15:52.687Z,2.43
2018-04-06T16:18:28.540Z,2.67
2018-04-06T16:21:03.637Z,2.57
2018-04-06T16:23:33.794Z,2.90
2018-04-06T16:26:04.262Z,2.53
2018-04-06T16:28:34.992Z,2.87
2018-04-06T16:31:11.039Z,3.13
2018-04-06T16:33:46.718Z,3.40
2018-04-06T16:36:23.727Z,4.10
2018-04-06T16:38:54.929Z,4.33
2018-04-06T16:41:30.476Z,4.50
2018-04-06T16:44:01.498Z,4.13
2018-04-06T16:46:37.941Z,3.93
2018-04-06T16:49:13.264Z,3.80
2018-04-06T16:51:48.748Z,3.70
2018-04-06T16:54:20.200Z,4.37
2018-04-06T16:56:52.089Z,4.30
2018-04-06T16:59:27.833Z,4.50
2018-04-06T17:01:58.975Z,4.63
2018-04-06T17:04:33.848Z,3.87
2018-04-06T17:07:05.047Z,3.63
2018-04-06T17:09:40.154Z,3.63
2018-04-06T17:12:12.097Z,3.80
2018-04-06T17:14:47.229Z,3.50
2018-04-06T17:17:22.577Z,3.90
2018-04-06T17:19:53.591Z,3.73
2018-04-06T17:22:24.074Z,4.20
2018-04-06T17:24:54.489Z,4.43
2018-04-06T17:27:25.730Z,4.20
2018-04-06T17:29:56.809Z,4.70
2018-04-06T17:32:28.700Z,4.30
2018-04-06T17:34:59.132Z,4.60
2018-04-06T17:37:33.664Z,4.87
2018-04-06T17:40:03.882Z,5.30
2018-04-06T17:42:34.371Z,4.80
2018-04-06T17:45:05.980Z,5.10
2018-04-06T17:58:49.256Z,6.20
2018-04-06T18:01:19.456Z,6.80
2018-04-06T18:03:50.562Z,8.23
2018-04-06T18:06:22.346Z,9.60
2018-04-06T18:08:57.893Z,8.53
2018-04-06T18:11:34.146Z,6.60
2018-04-06T18:14:04.417Z,6.70
2018-04-06T18:16:37.191Z,5.10
2018-04-06T18:19:08.073Z,6.23
2018-04-06T18:21:40.216Z,6.80
2018-04-06T18:24:16.123Z,6.93
2018-04-06T18:26:48.032Z,5.63
2018-04-06T18:29:25.184Z,6.07
2018-04-06T18:32:00.616Z,7.13
2018-04-06T18:34:36.118Z,6.70
2018-04-06T18:37:07.155Z,7.13
2018-04-06T18:39:44.254Z,8.60
2018-04-06T18:42:15.008Z,8.73
2018-04-06T18:44:50.466Z,9.40
2018-04-06T18:47:21.765Z,9.73
2018-04-06T18:49:58.155Z,9.80
2018-04-06T18:52:35.181Z,10.00
2018-04-06T18:55:12.247Z,10.67
2018-04-06T18:57:44.137Z,11.30
2018-04-06T19:00:14.623Z,11.90
2018-04-06T19:02:49.513Z,10.50
2018-04-06T19:05:25.882Z,10.80
2018-04-06T19:08:02.188Z,12.90
2018-04-06T19:10:39.673Z,10.77
2018-04-06T19:13:15.294Z,9.87
2018-04-06T19:15:50.579Z,10.67
2018-04-06T19:18:21.742Z,12.20
2018-04-06T19:20:57.338Z,10.93
2018-04-06T19:23:33.421Z,9.80
2018-04-06T19:26:09.576Z,10.37
2018-04-06T19:28:48.103Z,8.87
2018-04-06T19:31:20.080Z,7.10
2018-04-06T19:33:55.468Z,7.30
2018-04-06T19:36:31.718Z,7.17
2018-04-06T19:39:02.916Z,7.33
2018-04-06T19:41:39.456Z,7.97
2018-04-06T19:44:10.652Z,8.73
2018-04-06T19:46:41.315Z,8.53
2018-04-06T19:49:16.835Z,8.27
2018-04-06T19:51:52.247Z,7.97
2018-04-06T19:54:29.042Z,8.17
2018-04-06T19:57:04.663Z,9.50
2018-04-06T19:59:39.643Z,8.80
2018-04-06T20:02:10.748Z,7.57
2018-04-06T20:04:41.823Z,8.00
2018-04-06T20:07:17.458Z,8.00
2018-04-06T20:09:52.565Z,7.70
2018-04-06T20:12:27.989Z,6.10
2018-04-06T20:15:00.001Z,6.90
2018-04-06T20:17:34.917Z,6.07
2018-04-06T20:20:10.096Z,5.10
2018-04-06T20:22:46.496Z,5.40
2018-04-06T20:25:21.816Z,5.13
2018-04-06T20:27:57.864Z,5.30
2018-04-06T20:30:34.383Z,5.00
2018-04-06T20:33:10.069Z,5.93
2018-04-06T20:35:46.030Z,7.60
2018-04-06T20:38:21.295Z,6.63
2018-04-06T20:40:58.125Z,9.43
2018-04-06T20:43:33.339Z,5.83
2018-04-06T20:46:09.613Z,5.67
2018-04-06T20:48:41.397Z,7.23
2018-04-06T20:51:17.596Z,6.50
2018-04-06T20:53:48.632Z,6.93
2018-04-06T20:56:24.030Z,6.10
2018-04-06T20:59:01.732Z,6.50
2018-04-06T21:01:36.770Z,6.13
2018-04-06T21:04:07.950Z,5.87
2018-04-06T21:06:43.207Z,6.53
2018-04-06T21:09:18.935Z,6.17
2018-04-06T21:11:54.070Z,6.40
2018-04-06T21:14:30.216Z,5.13
2018-04-06T21:17:06.465Z,5.20
2018-04-06T21:19:38.580Z,5.90
2018-04-06T21:22:15.149Z,4.90
2018-04-06T21:24:50.508Z,3.73
2018-04-06T21:27:27.244Z,4.07
2018-04-06T21:30:03.002Z,4.23
2018-04-06T21:32:37.967Z,4.10
2018-04-06T21:35:13.634Z,4.10
2018-04-06T21:37:49.099Z,4.20
2018-04-06T21:40:24.733Z,4.03
2018-04-06T21:42:59.931Z,4.77
2018-04-06T21:45:36.144Z,4.60
2018-04-06T21:48:11.188Z,4.00
2018-04-06T21:50:45.720Z,4.23
2018-04-06T21:53:21.732Z,4.30
2018-04-06T21:55:57.247Z,3.83
2018-04-06T21:58:32.444Z,4.47
2018-04-06T22:01:09.345Z,5.20
2018-04-06T22:03:45.432Z,4.80
2018-04-06T22:06:21.140Z,4.47
2018-04-06T22:08:57.078Z,4.83
2018-04-06T22:11:32.185Z,4.70
2018-04-06T22:14:07.054Z,7.53
2018-04-06T22:16:38.196Z,4.60
2018-04-06T22:19:09.216Z,9.03
2018-04-06T22:21:44.946Z,5.73
2018-04-06T22:24:20.315Z,5.47
2018-04-06T22:26:55.875Z,6.40
2018-04-06T22:29:32.530Z,4.23
2018-04-06T22:32:07.601Z,4.07
2018-04-06T22:34:39.470Z,4.17
2018-04-06T22:37:15.606Z,4.97
2018-04-06T22:39:51.870Z,4.30
2018-04-06T22:42:27.467Z,4.50
2018-04-06T22:45:02.634Z,4.47
2018-04-06T22:47:38.074Z,4.30
2018-04-06T22:50:13.268Z,4.17
2018-04-06T22:52:47.621Z,4.70
2018-04-06T22:55:22.575Z,4.80
2018-04-06T22:57:57.995Z,4.53
2018-04-06T23:00:29.211Z,5.27
2018-04-06T23:03:00.283Z,5.43
2018-04-06T23:05:35.835Z,5.17
2018-04-06T23:08:10.716Z,4.50
2018-04-06T23:10:45.608Z,4.50
2018-04-06T23:13:17.006Z,5.10
2018-04-06T23:15:48.042Z,5.20
2018-04-06T23:18:23.477Z,5.00
2018-04-06T23:20:58.584Z,4.40
2018-04-06T23:23:34.029Z,4.50
2018-04-06T23:26:09.361Z,3.93
2018-04-06T23:28:44.664Z,4.20
2018-04-06T23:31:19.845Z,3.70
2018-04-06T23:33:55.401Z,3.40
2018-04-06T23:36:30.581Z,3.27
2018-04-06T23:39:07.130Z,3.70
2018-04-06T23:41:43.952Z,3.80
2018-04-06T23:44:19.501Z,3.87
2018-04-06T23:46:54.812Z,4.33
2018-04-06T23:49:31.442Z,4.47
2018-04-06T23:52:07.470Z,5.00
2018-04-06T23:54:42.624Z,4.50
2018-04-06T23:57:17.690Z,5.27
2018-04-06T23:59:52.962Z,5.17
